Portada
METAR-TAF:

METAR-TAF

Aeropuertos :

Aeropuerto de Hamburgo Finkenwerder

Finkenwerder, Alemania

latitud: 53-32N, longitud: 009-50E, altitud: 5 m

Observación

El informe se hizo hace 10 minutos, a las 18:20 UTC
Viento 14 kt del sur-suroeste
Temperatura 8°C
Humedad 76%
Presión 1005 hPa
Visibilidad 10 km o más
Cielo nuboso a una altura de 4900 ft

METAR: EDHI 201820Z 20014KT 9999 BKN049 08/04 Q1005

Hora: 19:30 (18:30 UTC)

Pronóstico

El informe se hizo hace 1 hora y 30 minutos, a las 17:00 UTC
Pronóstico válido del 20 a las 18 UTC al 20 a las 21 UTC
Viento 13 kt del sur-suroeste
Visibilidad 10 km o más
Cielo nuboso a una altura de 2500 ft
Evolucionando progresivamente
del 20 a las 18 UTC al 20 a las 21 UTC
Viento 20 kt del suroeste con ráfagas de 35 kt
lluvia

TAF: EDHI 201700Z 2018/2021 20013KT 9999 BKN025 BECMG 2018/2021 22020G35KT RA

Observaciones y pronósticos meteorológicos de más de 4000 aeropuertos (mensajes METAR y TAF).

Los puntos amarillos y rojos representan las estaciones disponibles.

Ponga el ratón en el punto deseado para ver el nombre de la estación.

Haga clic para ver las observaciones y los pronósticos meteorológicos.

Para cambiar el mapa : haga clic en los botones verdes con una cruz de color negro para hacer un zoom, en el botón verde con un guión para alejar o en las flechas verdes para mapas adyacentes.


METAR-TAF: